sensor_id;sensor_type;location;lat;lon;timestamp;P1;durP1;ratioP1;P2;durP2;ratioP2
4434;SDS011;46552;52.150;8.428;2022-11-20T00:00:24;35.10;;;20.10;;
4434;SDS011;46552;52.150;8.428;2022-11-20T00:02:51;27.87;;;18.97;;
4434;SDS011;46552;52.150;8.428;2022-11-20T00:05:18;36.83;;;22.20;;
4434;SDS011;46552;52.150;8.428;2022-11-20T00:07:46;34.27;;;19.13;;
4434;SDS011;46552;52.150;8.428;2022-11-20T00:10:13;34.70;;;20.63;;
4434;SDS011;46552;52.150;8.428;2022-11-20T00:12:40;36.00;;;21.67;;
4434;SDS011;46552;52.150;8.428;2022-11-20T00:15:08;35.73;;;20.00;;
4434;SDS011;46552;52.150;8.428;2022-11-20T00:17:37;37.43;;;21.40;;
4434;SDS011;46552;52.150;8.428;2022-11-20T00:20:04;39.33;;;22.07;;
4434;SDS011;46552;52.150;8.428;2022-11-20T00:22:32;37.80;;;19.70;;
4434;SDS011;46552;52.150;8.428;2022-11-20T00:24:59;41.63;;;22.40;;
4434;SDS011;46552;52.150;8.428;2022-11-20T00:27:26;41.90;;;21.60;;
4434;SDS011;46552;52.150;8.428;2022-11-20T00:29:54;44.27;;;19.80;;
4434;SDS011;46552;52.150;8.428;2022-11-20T00:32:21;35.57;;;20.67;;
4434;SDS011;46552;52.150;8.428;2022-11-20T00:34:50;33.70;;;20.50;;
4434;SDS011;46552;52.150;8.428;2022-11-20T00:37:17;37.07;;;22.60;;
4434;SDS011;46552;52.150;8.428;2022-11-20T00:39:44;41.40;;;20.70;;
4434;SDS011;46552;52.150;8.428;2022-11-20T00:42:11;39.60;;;20.90;;
4434;SDS011;46552;52.150;8.428;2022-11-20T00:44:38;40.13;;;19.80;;
4434;SDS011;46552;52.150;8.428;2022-11-20T00:47:06;38.10;;;19.80;;
4434;SDS011;46552;52.150;8.428;2022-11-20T00:49:33;34.40;;;18.37;;
4434;SDS011;46552;52.150;8.428;2022-11-20T00:52:02;37.60;;;20.13;;
4434;SDS011;46552;52.150;8.428;2022-11-20T00:54:29;32.00;;;18.43;;
4434;SDS011;46552;52.150;8.428;2022-11-20T00:56:56;38.57;;;20.30;;
4434;SDS011;46552;52.150;8.428;2022-11-20T00:59:23;37.40;;;19.27;;
4434;SDS011;46552;52.150;8.428;2022-11-20T01:01:51;36.90;;;19.33;;
4434;SDS011;46552;52.150;8.428;2022-11-20T01:04:20;44.23;;;20.83;;
4434;SDS011;46552;52.150;8.428;2022-11-20T01:06:47;41.87;;;21.33;;
4434;SDS011;46552;52.150;8.428;2022-11-20T01:09:15;40.40;;;19.30;;
4434;SDS011;46552;52.150;8.428;2022-11-20T01:11:42;34.50;;;20.50;;
4434;SDS011;46552;52.150;8.428;2022-11-20T01:14:12;37.30;;;19.30;;
4434;SDS011;46552;52.150;8.428;2022-11-20T01:16:41;35.77;;;20.37;;
4434;SDS011;46552;52.150;8.428;2022-11-20T01:19:11;33.97;;;18.47;;
4434;SDS011;46552;52.150;8.428;2022-11-20T01:21:40;37.50;;;22.30;;
4434;SDS011;46552;52.150;8.428;2022-11-20T01:24:11;44.60;;;26.20;;
4434;SDS011;46552;52.150;8.428;2022-11-20T01:26:42;47.70;;;27.37;;
4434;SDS011;46552;52.150;8.428;2022-11-20T01:29:12;49.70;;;27.13;;
4434;SDS011;46552;52.150;8.428;2022-11-20T01:31:41;55.63;;;28.50;;
4434;SDS011;46552;52.150;8.428;2022-11-20T01:34:09;47.57;;;24.53;;
4434;SDS011;46552;52.150;8.428;2022-11-20T01:36:39;45.93;;;23.17;;
4434;SDS011;46552;52.150;8.428;2022-11-20T01:39:10;53.33;;;26.53;;
4434;SDS011;46552;52.150;8.428;2022-11-20T01:41:38;47.30;;;26.50;;
4434;SDS011;46552;52.150;8.428;2022-11-20T01:47:16;38.27;;;21.67;;
4434;SDS011;46552;52.150;8.428;2022-11-20T01:49:48;35.83;;;21.87;;
4434;SDS011;46552;52.150;8.428;2022-11-20T01:52:19;37.70;;;20.73;;
4434;SDS011;46552;52.150;8.428;2022-11-20T01:54:49;39.97;;;21.80;;
4434;SDS011;46552;52.150;8.428;2022-11-20T01:57:20;39.03;;;21.90;;
4434;SDS011;46552;52.150;8.428;2022-11-20T01:59:51;37.30;;;21.00;;
4434;SDS011;46552;52.150;8.428;2022-11-20T02:02:23;35.67;;;20.43;;
4434;SDS011;46552;52.150;8.428;2022-11-20T02:04:50;39.37;;;21.30;;
4434;SDS011;46552;52.150;8.428;2022-11-20T02:07:20;44.17;;;21.10;;
4434;SDS011;46552;52.150;8.428;2022-11-20T02:09:49;33.20;;;21.10;;
4434;SDS011;46552;52.150;8.428;2022-11-20T02:12:16;32.70;;;21.47;;
4434;SDS011;46552;52.150;8.428;2022-11-20T02:14:59;30.10;;;18.80;;
4434;SDS011;46552;52.150;8.428;2022-11-20T02:17:27;38.30;;;18.80;;
4434;SDS011;46552;52.150;8.428;2022-11-20T02:19:54;35.93;;;20.40;;
4434;SDS011;46552;52.150;8.428;2022-11-20T02:22:24;34.10;;;19.30;;
4434;SDS011;46552;52.150;8.428;2022-11-20T02:24:59;36.23;;;20.60;;
4434;SDS011;46552;52.150;8.428;2022-11-20T02:27:28;39.40;;;19.93;;
4434;SDS011;46552;52.150;8.428;2022-11-20T02:29:57;31.30;;;19.50;;
4434;SDS011;46552;52.150;8.428;2022-11-20T02:32:28;34.53;;;19.60;;
4434;SDS011;46552;52.150;8.428;2022-11-20T02:34:57;32.90;;;19.70;;
4434;SDS011;46552;52.150;8.428;2022-11-20T02:37:26;43.70;;;20.87;;
4434;SDS011;46552;52.150;8.428;2022-11-20T02:39:59;42.50;;;22.50;;
4434;SDS011;46552;52.150;8.428;2022-11-20T02:42:26;40.07;;;21.70;;
4434;SDS011;46552;52.150;8.428;2022-11-20T02:44:53;45.77;;;24.20;;
4434;SDS011;46552;52.150;8.428;2022-11-20T02:47:20;41.53;;;21.47;;
4434;SDS011;46552;52.150;8.428;2022-11-20T02:49:47;36.40;;;20.80;;
4434;SDS011;46552;52.150;8.428;2022-11-20T02:52:15;34.23;;;20.73;;
4434;SDS011;46552;52.150;8.428;2022-11-20T02:54:42;35.33;;;19.33;;
4434;SDS011;46552;52.150;8.428;2022-11-20T02:57:11;32.37;;;19.07;;
4434;SDS011;46552;52.150;8.428;2022-11-20T02:59:38;34.07;;;18.97;;
4434;SDS011;46552;52.150;8.428;2022-11-20T03:02:05;39.63;;;21.13;;
4434;SDS011;46552;52.150;8.428;2022-11-20T03:04:32;36.63;;;21.60;;
4434;SDS011;46552;52.150;8.428;2022-11-20T03:07:00;32.13;;;19.97;;
4434;SDS011;46552;52.150;8.428;2022-11-20T03:09:27;45.43;;;22.43;;
4434;SDS011;46552;52.150;8.428;2022-11-20T03:11:54;28.30;;;18.17;;
4434;SDS011;46552;52.150;8.428;2022-11-20T03:14:22;39.70;;;19.57;;
4434;SDS011;46552;52.150;8.428;2022-11-20T03:16:51;38.30;;;19.70;;
4434;SDS011;46552;52.150;8.428;2022-11-20T03:19:17;26.67;;;16.17;;
4434;SDS011;46552;52.150;8.428;2022-11-20T03:21:45;33.87;;;18.50;;
4434;SDS011;46552;52.150;8.428;2022-11-20T03:24:13;43.60;;;21.07;;
4434;SDS011;46552;52.150;8.428;2022-11-20T03:26:40;36.03;;;20.50;;
4434;SDS011;46552;52.150;8.428;2022-11-20T03:29:08;36.83;;;21.40;;
4434;SDS011;46552;52.150;8.428;2022-11-20T03:31:38;35.87;;;19.53;;
4434;SDS011;46552;52.150;8.428;2022-11-20T03:34:07;34.17;;;19.77;;
4434;SDS011;46552;52.150;8.428;2022-11-20T03:36:37;35.03;;;20.03;;
4434;SDS011;46552;52.150;8.428;2022-11-20T03:39:05;37.33;;;20.50;;
4434;SDS011;46552;52.150;8.428;2022-11-20T03:41:35;39.00;;;19.87;;
4434;SDS011;46552;52.150;8.428;2022-11-20T03:44:04;33.37;;;19.67;;
4434;SDS011;46552;52.150;8.428;2022-11-20T03:46:32;38.87;;;20.70;;
4434;SDS011;46552;52.150;8.428;2022-11-20T03:49:01;36.60;;;20.77;;
4434;SDS011;46552;52.150;8.428;2022-11-20T03:51:28;40.33;;;23.30;;
4434;SDS011;46552;52.150;8.428;2022-11-20T03:53:58;40.77;;;22.50;;
4434;SDS011;46552;52.150;8.428;2022-11-20T03:56:27;41.70;;;22.70;;
4434;SDS011;46552;52.150;8.428;2022-11-20T03:58:56;34.10;;;20.93;;
4434;SDS011;46552;52.150;8.428;2022-11-20T04:01:25;42.47;;;22.87;;
4434;SDS011;46552;52.150;8.428;2022-11-20T04:03:54;38.00;;;21.40;;
4434;SDS011;46552;52.150;8.428;2022-11-20T04:06:26;38.67;;;21.17;;
4434;SDS011;46552;52.150;8.428;2022-11-20T04:08:55;40.87;;;19.93;;
4434;SDS011;46552;52.150;8.428;2022-11-20T04:11:24;34.13;;;19.33;;
4434;SDS011;46552;52.150;8.428;2022-11-20T04:13:54;36.07;;;19.57;;
4434;SDS011;46552;52.150;8.428;2022-11-20T04:16:23;39.07;;;21.80;;
4434;SDS011;46552;52.150;8.428;2022-11-20T04:18:52;31.63;;;18.23;;
4434;SDS011;46552;52.150;8.428;2022-11-20T04:21:20;29.03;;;18.80;;
4434;SDS011;46552;52.150;8.428;2022-11-20T04:23:49;31.97;;;17.60;;
4434;SDS011;46552;52.150;8.428;2022-11-20T04:26:18;37.30;;;19.90;;
4434;SDS011;46552;52.150;8.428;2022-11-20T04:28:47;28.50;;;17.10;;
4434;SDS011;46552;52.150;8.428;2022-11-20T04:31:14;34.07;;;20.73;;
4434;SDS011;46552;52.150;8.428;2022-11-20T04:33:43;40.33;;;20.23;;
4434;SDS011;46552;52.150;8.428;2022-11-20T04:36:11;36.67;;;19.70;;
4434;SDS011;46552;52.150;8.428;2022-11-20T04:38:39;37.80;;;21.60;;
4434;SDS011;46552;52.150;8.428;2022-11-20T04:41:08;33.43;;;20.10;;
4434;SDS011;46552;52.150;8.428;2022-11-20T04:43:40;39.13;;;21.63;;
4434;SDS011;46552;52.150;8.428;2022-11-20T04:46:07;36.77;;;21.50;;
4434;SDS011;46552;52.150;8.428;2022-11-20T04:48:34;39.40;;;20.83;;
4434;SDS011;46552;52.150;8.428;2022-11-20T04:51:02;38.87;;;19.40;;
4434;SDS011;46552;52.150;8.428;2022-11-20T04:53:30;37.77;;;20.07;;
4434;SDS011;46552;52.150;8.428;2022-11-20T04:55:59;39.70;;;22.40;;
4434;SDS011;46552;52.150;8.428;2022-11-20T04:58:28;38.00;;;21.33;;
4434;SDS011;46552;52.150;8.428;2022-11-20T05:01:00;37.47;;;21.73;;
4434;SDS011;46552;52.150;8.428;2022-11-20T05:03:28;39.37;;;20.83;;
4434;SDS011;46552;52.150;8.428;2022-11-20T05:05:55;39.60;;;21.00;;
4434;SDS011;46552;52.150;8.428;2022-11-20T05:08:23;41.97;;;23.70;;
4434;SDS011;46552;52.150;8.428;2022-11-20T05:10:50;40.27;;;21.83;;
4434;SDS011;46552;52.150;8.428;2022-11-20T05:13:17;39.70;;;22.17;;
4434;SDS011;46552;52.150;8.428;2022-11-20T05:15:46;40.53;;;21.00;;
4434;SDS011;46552;52.150;8.428;2022-11-20T05:18:14;40.60;;;21.80;;
4434;SDS011;46552;52.150;8.428;2022-11-20T05:20:42;38.07;;;22.70;;
4434;SDS011;46552;52.150;8.428;2022-11-20T05:23:11;45.20;;;22.83;;
4434;SDS011;46552;52.150;8.428;2022-11-20T05:25:37;45.23;;;22.67;;
4434;SDS011;46552;52.150;8.428;2022-11-20T05:28:04;32.93;;;22.00;;
4434;SDS011;46552;52.150;8.428;2022-11-20T05:30:32;41.73;;;22.83;;
4434;SDS011;46552;52.150;8.428;2022-11-20T05:33:01;39.87;;;22.10;;
4434;SDS011;46552;52.150;8.428;2022-11-20T05:35:28;35.70;;;20.37;;
4434;SDS011;46552;52.150;8.428;2022-11-20T05:37:55;44.93;;;20.50;;
4434;SDS011;46552;52.150;8.428;2022-11-20T05:40:22;34.17;;;20.30;;
4434;SDS011;46552;52.150;8.428;2022-11-20T05:42:50;40.53;;;21.40;;
4434;SDS011;46552;52.150;8.428;2022-11-20T05:45:17;40.90;;;21.60;;
4434;SDS011;46552;52.150;8.428;2022-11-20T05:47:44;39.57;;;22.10;;
4434;SDS011;46552;52.150;8.428;2022-11-20T05:52:41;42.37;;;22.47;;
4434;SDS011;46552;52.150;8.428;2022-11-20T05:55:09;41.20;;;21.33;;
4434;SDS011;46552;52.150;8.428;2022-11-20T05:57:36;42.17;;;23.70;;
4434;SDS011;46552;52.150;8.428;2022-11-20T06:00:03;39.10;;;21.77;;
4434;SDS011;46552;52.150;8.428;2022-11-20T06:02:33;42.23;;;22.80;;
4434;SDS011;46552;52.150;8.428;2022-11-20T06:05:02;34.83;;;20.77;;
4434;SDS011;46552;52.150;8.428;2022-11-20T06:07:31;44.53;;;22.00;;
4434;SDS011;46552;52.150;8.428;2022-11-20T06:09:58;34.93;;;21.63;;
4434;SDS011;46552;52.150;8.428;2022-11-20T06:12:25;34.50;;;19.80;;
4434;SDS011;46552;52.150;8.428;2022-11-20T06:14:52;44.27;;;24.43;;
4434;SDS011;46552;52.150;8.428;2022-11-20T06:17:19;39.20;;;22.60;;
4434;SDS011;46552;52.150;8.428;2022-11-20T06:19:46;41.20;;;24.57;;
4434;SDS011;46552;52.150;8.428;2022-11-20T06:22:13;44.70;;;25.97;;
4434;SDS011;46552;52.150;8.428;2022-11-20T06:24:42;49.23;;;24.00;;
4434;SDS011;46552;52.150;8.428;2022-11-20T06:27:09;50.17;;;25.93;;
4434;SDS011;46552;52.150;8.428;2022-11-20T06:29:36;46.30;;;26.20;;
4434;SDS011;46552;52.150;8.428;2022-11-20T06:32:04;50.17;;;30.53;;
4434;SDS011;46552;52.150;8.428;2022-11-20T06:34:31;49.23;;;27.90;;
4434;SDS011;46552;52.150;8.428;2022-11-20T06:36:59;60.07;;;30.80;;
4434;SDS011;46552;52.150;8.428;2022-11-20T06:39:26;49.30;;;27.00;;
4434;SDS011;46552;52.150;8.428;2022-11-20T06:41:54;51.70;;;27.23;;
4434;SDS011;46552;52.150;8.428;2022-11-20T06:44:22;46.93;;;25.80;;
4434;SDS011;46552;52.150;8.428;2022-11-20T06:46:49;48.83;;;24.93;;
4434;SDS011;46552;52.150;8.428;2022-11-20T06:49:16;58.70;;;27.07;;
4434;SDS011;46552;52.150;8.428;2022-11-20T06:51:43;46.30;;;27.30;;
4434;SDS011;46552;52.150;8.428;2022-11-20T06:54:10;48.40;;;25.80;;
4434;SDS011;46552;52.150;8.428;2022-11-20T06:56:37;38.87;;;23.47;;
4434;SDS011;46552;52.150;8.428;2022-11-20T06:59:06;42.87;;;25.70;;
4434;SDS011;46552;52.150;8.428;2022-11-20T07:01:33;42.27;;;22.87;;
4434;SDS011;46552;52.150;8.428;2022-11-20T07:04:01;40.53;;;24.77;;
4434;SDS011;46552;52.150;8.428;2022-11-20T07:06:28;42.80;;;24.77;;
4434;SDS011;46552;52.150;8.428;2022-11-20T07:08:55;40.97;;;24.57;;
4434;SDS011;46552;52.150;8.428;2022-11-20T07:11:23;49.10;;;26.43;;
4434;SDS011;46552;52.150;8.428;2022-11-20T07:13:50;49.13;;;25.30;;
4434;SDS011;46552;52.150;8.428;2022-11-20T07:16:18;46.60;;;25.47;;
4434;SDS011;46552;52.150;8.428;2022-11-20T07:18:46;46.17;;;25.73;;
4434;SDS011;46552;52.150;8.428;2022-11-20T07:21:13;42.30;;;24.53;;
4434;SDS011;46552;52.150;8.428;2022-11-20T07:23:41;38.03;;;20.67;;
4434;SDS011;46552;52.150;8.428;2022-11-20T07:26:08;37.50;;;19.60;;
4434;SDS011;46552;52.150;8.428;2022-11-20T07:28:37;37.60;;;18.07;;
4434;SDS011;46552;52.150;8.428;2022-11-20T07:31:04;32.47;;;18.87;;
4434;SDS011;46552;52.150;8.428;2022-11-20T07:33:34;35.30;;;18.63;;
4434;SDS011;46552;52.150;8.428;2022-11-20T07:36:01;32.03;;;17.93;;
4434;SDS011;46552;52.150;8.428;2022-11-20T07:38:28;33.17;;;19.03;;
4434;SDS011;46552;52.150;8.428;2022-11-20T07:40:56;38.47;;;19.80;;
4434;SDS011;46552;52.150;8.428;2022-11-20T07:43:26;32.80;;;16.33;;
4434;SDS011;46552;52.150;8.428;2022-11-20T07:45:54;36.53;;;18.17;;
4434;SDS011;46552;52.150;8.428;2022-11-20T07:48:22;31.33;;;16.50;;
4434;SDS011;46552;52.150;8.428;2022-11-20T07:50:52;33.07;;;17.73;;
4434;SDS011;46552;52.150;8.428;2022-11-20T07:53:19;48.93;;;20.00;;
4434;SDS011;46552;52.150;8.428;2022-11-20T07:55:47;37.07;;;18.57;;
4434;SDS011;46552;52.150;8.428;2022-11-20T07:58:17;37.37;;;18.37;;
4434;SDS011;46552;52.150;8.428;2022-11-20T08:00:44;41.63;;;21.47;;
4434;SDS011;46552;52.150;8.428;2022-11-20T08:03:11;34.30;;;18.17;;
4434;SDS011;46552;52.150;8.428;2022-11-20T08:05:39;30.43;;;16.90;;
4434;SDS011;46552;52.150;8.428;2022-11-20T08:08:07;27.73;;;14.70;;
4434;SDS011;46552;52.150;8.428;2022-11-20T08:10:35;26.23;;;15.33;;
4434;SDS011;46552;52.150;8.428;2022-11-20T08:13:02;22.10;;;12.80;;
4434;SDS011;46552;52.150;8.428;2022-11-20T08:15:48;25.60;;;13.50;;
4434;SDS011;46552;52.150;8.428;2022-11-20T08:18:16;22.63;;;12.77;;
4434;SDS011;46552;52.150;8.428;2022-11-20T08:20:45;23.43;;;13.70;;
4434;SDS011;46552;52.150;8.428;2022-11-20T08:23:14;25.73;;;16.17;;
4434;SDS011;46552;52.150;8.428;2022-11-20T08:25:41;26.50;;;14.50;;
4434;SDS011;46552;52.150;8.428;2022-11-20T08:28:09;24.63;;;14.93;;
4434;SDS011;46552;52.150;8.428;2022-11-20T08:30:36;22.30;;;14.90;;
4434;SDS011;46552;52.150;8.428;2022-11-20T08:33:04;25.67;;;15.00;;
4434;SDS011;46552;52.150;8.428;2022-11-20T08:35:33;27.10;;;15.83;;
4434;SDS011;46552;52.150;8.428;2022-11-20T08:38:02;25.97;;;15.80;;
4434;SDS011;46552;52.150;8.428;2022-11-20T08:40:31;27.10;;;15.37;;
4434;SDS011;46552;52.150;8.428;2022-11-20T08:42:58;28.80;;;16.90;;
4434;SDS011;46552;52.150;8.428;2022-11-20T08:45:25;31.20;;;16.50;;
4434;SDS011;46552;52.150;8.428;2022-11-20T08:47:53;25.83;;;15.20;;
4434;SDS011;46552;52.150;8.428;2022-11-20T08:50:20;32.67;;;16.50;;
4434;SDS011;46552;52.150;8.428;2022-11-20T08:52:47;35.80;;;16.53;;
4434;SDS011;46552;52.150;8.428;2022-11-20T08:55:14;32.80;;;18.30;;
4434;SDS011;46552;52.150;8.428;2022-11-20T08:57:43;37.57;;;17.40;;
4434;SDS011;46552;52.150;8.428;2022-11-20T09:00:10;37.53;;;18.80;;
4434;SDS011;46552;52.150;8.428;2022-11-20T09:02:38;39.50;;;18.27;;
4434;SDS011;46552;52.150;8.428;2022-11-20T09:05:06;43.70;;;20.43;;
4434;SDS011;46552;52.150;8.428;2022-11-20T09:07:33;33.20;;;18.53;;
4434;SDS011;46552;52.150;8.428;2022-11-20T09:10:02;42.30;;;18.50;;
4434;SDS011;46552;52.150;8.428;2022-11-20T09:12:29;52.50;;;23.03;;
4434;SDS011;46552;52.150;8.428;2022-11-20T09:14:58;40.17;;;20.27;;
4434;SDS011;46552;52.150;8.428;2022-11-20T09:17:25;47.63;;;21.77;;
4434;SDS011;46552;52.150;8.428;2022-11-20T09:19:52;46.67;;;22.83;;
4434;SDS011;46552;52.150;8.428;2022-11-20T09:22:19;49.00;;;21.80;;
4434;SDS011;46552;52.150;8.428;2022-11-20T09:24:46;54.37;;;23.80;;
4434;SDS011;46552;52.150;8.428;2022-11-20T09:27:14;53.17;;;25.27;;
4434;SDS011;46552;52.150;8.428;2022-11-20T09:29:41;55.23;;;26.73;;
4434;SDS011;46552;52.150;8.428;2022-11-20T09:32:10;55.23;;;24.67;;
4434;SDS011;46552;52.150;8.428;2022-11-20T09:34:37;39.53;;;20.70;;
4434;SDS011;46552;52.150;8.428;2022-11-20T09:37:05;35.47;;;16.47;;
4434;SDS011;46552;52.150;8.428;2022-11-20T09:39:32;40.90;;;19.60;;
4434;SDS011;46552;52.150;8.428;2022-11-20T09:42:14;40.23;;;19.03;;
4434;SDS011;46552;52.150;8.428;2022-11-20T09:44:58;39.80;;;18.90;;
4434;SDS011;46552;52.150;8.428;2022-11-20T09:47:36;33.00;;;18.10;;
4434;SDS011;46552;52.150;8.428;2022-11-20T09:50:20;36.60;;;17.30;;
4434;SDS011;46552;52.150;8.428;2022-11-20T09:53:02;34.03;;;17.77;;
4434;SDS011;46552;52.150;8.428;2022-11-20T09:55:38;36.50;;;18.93;;
4434;SDS011;46552;52.150;8.428;2022-11-20T09:58:06;30.27;;;16.60;;
4434;SDS011;46552;52.150;8.428;2022-11-20T10:00:39;29.90;;;14.50;;
4434;SDS011;46552;52.150;8.428;2022-11-20T10:03:11;23.13;;;14.87;;
4434;SDS011;46552;52.150;8.428;2022-11-20T10:05:44;24.40;;;14.47;;
4434;SDS011;46552;52.150;8.428;2022-11-20T10:08:14;29.00;;;15.00;;
4434;SDS011;46552;52.150;8.428;2022-11-20T10:10:47;26.67;;;15.07;;
4434;SDS011;46552;52.150;8.428;2022-11-20T10:13:26;24.70;;;12.93;;
4434;SDS011;46552;52.150;8.428;2022-11-20T10:16:06;28.17;;;12.73;;
4434;SDS011;46552;52.150;8.428;2022-11-20T10:18:53;22.77;;;13.50;;
4434;SDS011;46552;52.150;8.428;2022-11-20T10:21:30;25.20;;;13.00;;
4434;SDS011;46552;52.150;8.428;2022-11-20T10:27:02;23.77;;;14.63;;
4434;SDS011;46552;52.150;8.428;2022-11-20T10:29:36;28.57;;;14.70;;
4434;SDS011;46552;52.150;8.428;2022-11-20T10:32:09;22.07;;;13.27;;
4434;SDS011;46552;52.150;8.428;2022-11-20T10:34:43;18.83;;;12.67;;
4434;SDS011;46552;52.150;8.428;2022-11-20T10:37:17;27.80;;;13.73;;
4434;SDS011;46552;52.150;8.428;2022-11-20T10:39:49;20.80;;;13.80;;
4434;SDS011;46552;52.150;8.428;2022-11-20T10:42:22;19.50;;;13.90;;
4434;SDS011;46552;52.150;8.428;2022-11-20T10:44:58;21.20;;;13.67;;
4434;SDS011;46552;52.150;8.428;2022-11-20T10:47:37;22.47;;;13.50;;
4434;SDS011;46552;52.150;8.428;2022-11-20T10:50:08;19.17;;;12.10;;
4434;SDS011;46552;52.150;8.428;2022-11-20T10:52:41;21.57;;;13.47;;
4434;SDS011;46552;52.150;8.428;2022-11-20T10:55:23;18.90;;;12.63;;
4434;SDS011;46552;52.150;8.428;2022-11-20T10:58:00;21.70;;;13.40;;
4434;SDS011;46552;52.150;8.428;2022-11-20T11:00:36;17.70;;;11.13;;
4434;SDS011;46552;52.150;8.428;2022-11-20T11:03:07;19.10;;;12.50;;
4434;SDS011;46552;52.150;8.428;2022-11-20T11:05:49;17.73;;;12.50;;
4434;SDS011;46552;52.150;8.428;2022-11-20T11:08:21;19.50;;;12.17;;
4434;SDS011;46552;52.150;8.428;2022-11-20T11:10:50;16.93;;;11.33;;
4434;SDS011;46552;52.150;8.428;2022-11-20T11:13:20;17.73;;;12.03;;
4434;SDS011;46552;52.150;8.428;2022-11-20T11:15:48;17.87;;;11.30;;
4434;SDS011;46552;52.150;8.428;2022-11-20T11:18:23;16.87;;;11.67;;
4434;SDS011;46552;52.150;8.428;2022-11-20T11:20:54;16.37;;;9.90;;
4434;SDS011;46552;52.150;8.428;2022-11-20T11:23:26;15.40;;;11.50;;
4434;SDS011;46552;52.150;8.428;2022-11-20T11:25:58;14.90;;;10.57;;
4434;SDS011;46552;52.150;8.428;2022-11-20T11:28:27;13.23;;;10.20;;
4434;SDS011;46552;52.150;8.428;2022-11-20T11:30:55;15.00;;;10.27;;
4434;SDS011;46552;52.150;8.428;2022-11-20T11:33:23;16.07;;;11.33;;
4434;SDS011;46552;52.150;8.428;2022-11-20T11:35:54;17.03;;;11.50;;
4434;SDS011;46552;52.150;8.428;2022-11-20T11:38:27;13.93;;;10.03;;
4434;SDS011;46552;52.150;8.428;2022-11-20T11:40:57;13.43;;;10.47;;
4434;SDS011;46552;52.150;8.428;2022-11-20T11:43:25;16.63;;;12.10;;
4434;SDS011;46552;52.150;8.428;2022-11-20T11:48:57;17.57;;;13.00;;
4434;SDS011;46552;52.150;8.428;2022-11-20T11:51:31;17.07;;;12.03;;
4434;SDS011;46552;52.150;8.428;2022-11-20T11:54:09;14.00;;;10.40;;
4434;SDS011;46552;52.150;8.428;2022-11-20T11:56:43;14.03;;;9.93;;
4434;SDS011;46552;52.150;8.428;2022-11-20T11:59:12;12.80;;;9.90;;
4434;SDS011;46552;52.150;8.428;2022-11-20T12:01:50;14.57;;;10.73;;
4434;SDS011;46552;52.150;8.428;2022-11-20T12:04:33;14.60;;;10.47;;
4434;SDS011;46552;52.150;8.428;2022-11-20T12:07:10;15.43;;;10.37;;
4434;SDS011;46552;52.150;8.428;2022-11-20T12:09:43;11.00;;;7.80;;
4434;SDS011;46552;52.150;8.428;2022-11-20T12:12:15;13.37;;;9.10;;
4434;SDS011;46552;52.150;8.428;2022-11-20T12:14:45;19.87;;;9.00;;
4434;SDS011;46552;52.150;8.428;2022-11-20T12:17:15;13.93;;;9.87;;
4434;SDS011;46552;52.150;8.428;2022-11-20T12:19:42;15.20;;;9.93;;
4434;SDS011;46552;52.150;8.428;2022-11-20T12:22:13;17.57;;;10.40;;
4434;SDS011;46552;52.150;8.428;2022-11-20T12:24:55;12.20;;;8.53;;
4434;SDS011;46552;52.150;8.428;2022-11-20T12:27:35;15.77;;;10.13;;
4434;SDS011;46552;52.150;8.428;2022-11-20T12:30:14;14.60;;;9.37;;
4434;SDS011;46552;52.150;8.428;2022-11-20T12:35:42;15.60;;;10.17;;
4434;SDS011;46552;52.150;8.428;2022-11-20T12:41:32;16.90;;;9.43;;
4434;SDS011;46552;52.150;8.428;2022-11-20T12:45:00;15.30;;;10.00;;
4434;SDS011;46552;52.150;8.428;2022-11-20T12:47:41;17.13;;;10.23;;
4434;SDS011;46552;52.150;8.428;2022-11-20T12:50:21;18.90;;;9.93;;
4434;SDS011;46552;52.150;8.428;2022-11-20T12:52:56;15.30;;;9.60;;
4434;SDS011;46552;52.150;8.428;2022-11-20T12:55:30;17.50;;;9.80;;
4434;SDS011;46552;52.150;8.428;2022-11-20T12:58:04;20.80;;;10.93;;
4434;SDS011;46552;52.150;8.428;2022-11-20T13:00:35;20.93;;;10.57;;
4434;SDS011;46552;52.150;8.428;2022-11-20T13:03:20;23.60;;;10.97;;
4434;SDS011;46552;52.150;8.428;2022-11-20T13:06:10;18.20;;;10.80;;
4434;SDS011;46552;52.150;8.428;2022-11-20T13:08:42;14.90;;;9.33;;
4434;SDS011;46552;52.150;8.428;2022-11-20T13:11:17;15.87;;;9.60;;
4434;SDS011;46552;52.150;8.428;2022-11-20T13:14:02;19.90;;;10.53;;
4434;SDS011;46552;52.150;8.428;2022-11-20T13:16:37;13.90;;;8.40;;
4434;SDS011;46552;52.150;8.428;2022-11-20T13:19:09;15.80;;;9.80;;
4434;SDS011;46552;52.150;8.428;2022-11-20T13:21:40;16.40;;;9.80;;
4434;SDS011;46552;52.150;8.428;2022-11-20T13:24:20;20.30;;;9.60;;
4434;SDS011;46552;52.150;8.428;2022-11-20T13:27:00;16.23;;;9.30;;
4434;SDS011;46552;52.150;8.428;2022-11-20T13:29:43;18.47;;;9.57;;
4434;SDS011;46552;52.150;8.428;2022-11-20T13:32:13;15.33;;;9.40;;
4434;SDS011;46552;52.150;8.428;2022-11-20T13:34:52;14.73;;;9.03;;
4434;SDS011;46552;52.150;8.428;2022-11-20T13:37:24;16.73;;;9.40;;
4434;SDS011;46552;52.150;8.428;2022-11-20T13:40:04;17.20;;;9.40;;
4434;SDS011;46552;52.150;8.428;2022-11-20T13:43:01;15.20;;;8.23;;
4434;SDS011;46552;52.150;8.428;2022-11-20T13:45:33;19.77;;;9.03;;
4434;SDS011;46552;52.150;8.428;2022-11-20T13:48:02;18.60;;;9.87;;
4434;SDS011;46552;52.150;8.428;2022-11-20T13:50:40;18.20;;;9.60;;
4434;SDS011;46552;52.150;8.428;2022-11-20T13:53:22;19.37;;;10.93;;
4434;SDS011;46552;52.150;8.428;2022-11-20T13:56:00;16.40;;;9.63;;
4434;SDS011;46552;52.150;8.428;2022-11-20T13:58:43;19.90;;;10.80;;
4434;SDS011;46552;52.150;8.428;2022-11-20T14:01:16;19.80;;;11.07;;
4434;SDS011;46552;52.150;8.428;2022-11-20T14:03:46;16.60;;;9.70;;
4434;SDS011;46552;52.150;8.428;2022-11-20T14:06:15;14.90;;;8.80;;
4434;SDS011;46552;52.150;8.428;2022-11-20T14:08:52;21.10;;;11.33;;
4434;SDS011;46552;52.150;8.428;2022-11-20T14:11:20;22.67;;;12.37;;
4434;SDS011;46552;52.150;8.428;2022-11-20T14:14:01;21.90;;;11.50;;
4434;SDS011;46552;52.150;8.428;2022-11-20T14:16:30;15.87;;;9.07;;
4434;SDS011;46552;52.150;8.428;2022-11-20T14:19:17;24.50;;;11.97;;
4434;SDS011;46552;52.150;8.428;2022-11-20T14:21:52;22.70;;;10.30;;
4434;SDS011;46552;52.150;8.428;2022-11-20T14:24:32;16.97;;;9.37;;
4434;SDS011;46552;52.150;8.428;2022-11-20T14:26:59;21.10;;;9.27;;
4434;SDS011;46552;52.150;8.428;2022-11-20T14:29:28;19.67;;;10.10;;
4434;SDS011;46552;52.150;8.428;2022-11-20T14:32:17;19.90;;;10.63;;
4434;SDS011;46552;52.150;8.428;2022-11-20T14:34:47;18.57;;;9.87;;
4434;SDS011;46552;52.150;8.428;2022-11-20T14:37:17;29.20;;;12.83;;
4434;SDS011;46552;52.150;8.428;2022-11-20T14:39:49;99.20;;;41.57;;
4434;SDS011;46552;52.150;8.428;2022-11-20T14:42:18;221.23;;;82.47;;
4434;SDS011;46552;52.150;8.428;2022-11-20T14:44:49;57.97;;;26.20;;
4434;SDS011;46552;52.150;8.428;2022-11-20T14:47:18;68.33;;;25.60;;
4434;SDS011;46552;52.150;8.428;2022-11-20T14:49:48;95.07;;;39.27;;
4434;SDS011;46552;52.150;8.428;2022-11-20T14:52:17;37.60;;;19.17;;
4434;SDS011;46552;52.150;8.428;2022-11-20T14:54:46;30.33;;;15.70;;
4434;SDS011;46552;52.150;8.428;2022-11-20T14:57:24;23.87;;;12.63;;
4434;SDS011;46552;52.150;8.428;2022-11-20T15:00:05;20.50;;;11.60;;
4434;SDS011;46552;52.150;8.428;2022-11-20T15:02:34;27.23;;;12.80;;
4434;SDS011;46552;52.150;8.428;2022-11-20T15:05:05;21.87;;;12.80;;
4434;SDS011;46552;52.150;8.428;2022-11-20T15:07:34;19.20;;;11.70;;
4434;SDS011;46552;52.150;8.428;2022-11-20T15:10:03;21.00;;;12.03;;
4434;SDS011;46552;52.150;8.428;2022-11-20T15:12:32;20.73;;;11.53;;